Latest Weather Observations for Minnipa RS

IDS60801

Issued at 2:01 pm CDT Friday 9 December 2016 (issued every 30 minutes, with the page automatically refreshed every 10 minutes)

About weather observations | Map of weather stations | Latest weather observations for SA | Other Formats
Station Details ID: 018195 Name: MINNIPA PIRSA Lat: -32.84 Lon: 135.15 Height: 165.0 m
Data from the previous 72 hours. | See also: Recent months at Minnipa RS
Date/Time
CDT
Temp
°C
App
Temp
°C
Dew
Point
°C
Rel
Hum
%
Delta-T
°C
Wind Press
QNH
hPa
Press
MSL
hPa
Rain since
9am
mm
Dir  Spd
km/h
Gust
km/h
Spd
kts
Gust
kts
09/02:00pm 21.6 17.4 1.8 27 9.2 SE 13 26 7 14 1022.2 1021.6 0.0
09/01:30pm 20.8 16.3 2.1 29 8.7 SSE 15 24 8 13 1022.5 1021.9 0.0
09/01:00pm 20.4 16.4 2.7 31 8.3 SSE 13 24 7 13 1022.8 1022.2 0.0
09/12:30pm 19.9 15.1 2.7 32 8.0 SSE 17 30 9 16 1023.1 1022.5 0.0
09/12:00pm 18.4 14.0 2.7 35 7.3 SSE 15 26 8 14 1023.3 1022.7 0.0
09/11:30am 18.1 13.9 3.6 38 6.8 ESE 15 26 8 14 1023.5 1022.8 0.0
09/11:00am 17.5 13.7 3.8 40 6.5 SE 13 24 7 13 1023.7 1023.0 0.0
09/10:30am 16.5 12.4 4.2 44 5.8 SE 15 22 8 12 1023.8 1023.1 0.0
09/10:00am 16.0 11.4 3.8 44 5.7 SSE 17 33 9 18 1023.8 1023.1 0.0
09/09:30am 15.2 10.2 4.6 49 5.0 SSE 20 30 11 16 1023.7 1023.0 0.0
09/09:00am 15.0 9.9 5.8 54 4.4 SE 22 28 12 15 1023.7 1023.0 0.0
09/08:30am 14.4 9.6 5.7 56 4.1 SE 20 30 11 16 1023.6 1022.9 0.0
09/08:00am 12.9 9.5 7.6 70 2.6 SE 15 19 8 10 1023.3 1022.7 0.0
09/07:30am 11.9 9.7 7.8 76 2.0 SE 9 13 5 7 1023.0 1022.4 0.0
09/07:00am 10.2 7.9 7.4 83 1.3 ESE 9 9 5 5 1022.6 1022.0 0.0
09/06:30am 8.4 5.8 6.2 86 1.0 SE 9 11 5 6 1022.4 1021.8 0.0
09/06:00am 8.1 5.8 5.9 86 1.0 ESE 7 9 4 5 1022.1 1021.5 0.0
09/05:30am 8.6 6.5 5.9 83 1.2 SE 6 7 3 4 1021.8 1021.2 0.0
09/05:00am 9.8 8.0 7.1 83 1.3 SSE 6 7 3 4 1021.4 1020.8 0.0
09/04:30am 8.5 6.4 5.8 83 1.2 SSE 6 7 3 4 1021.2 1020.6 0.0
09/04:00am 8.7 6.6 6.0 83 1.2 SSE 6 7 3 4 1021.0 1020.4 0.0
09/03:30am 8.8 7.9 6.1 83 1.2 CALM 0 0 0 0 1020.8 1020.2 0.0
09/03:00am 9.2 8.4 6.5 83 1.3 CALM 0 0 0 0 1020.7 1020.1 0.0
09/02:30am 9.3 8.5 6.6 83 1.3 CALM 0 0 0 0 1020.8 1020.2 0.0
09/02:00am 9.2 7.5 6.1 81 1.4 SSW 4 6 2 3 1020.8 1020.2 0.0
09/01:30am 9.7 7.1 6.2 79 1.6 SSW 9 11 5 6 1021.0 1020.4 0.0
09/01:00am 10.0 7.9 6.5 79 1.6 SSW 7 9 4 5 1021.0 1020.4 0.0
09/12:30am 9.9 7.6 5.9 76 1.8 SSW 7 7 4 4 1021.1 1020.5 0.0
09/12:00am 10.8 8.3 6.4 74 2.1 S 9 11 5 6 1020.9 1020.3 0.0
 
Date/Time
CDT
Temp
°C
App
Temp
°C
Dew
Point
°C
Rel
Hum
%
Delta-T
°C
Wind Press
QNH
hPa
Press
MSL
hPa
Rain since
9am
mm
Dir  Spd
km/h
Gust
km/h
Spd
kts
Gust
kts
08/11:30pm 11.7 8.5 6.8 72 2.3 S 13 17 7 9 1020.7 1020.1 0.0
08/11:00pm 12.2 9.0 6.9 70 2.6 S 13 15 7 8 1020.9 1020.3 0.0
08/10:30pm 12.8 9.6 7.0 68 2.8 S 13 19 7 10 1020.5 1019.9 0.0
08/10:00pm 13.2 9.7 7.0 66 3.0 S 15 20 8 11 1020.1 1019.5 0.0
08/09:30pm 13.7 8.7 6.6 62 3.4 S 22 30 12 16 1019.7 1019.1 0.0
08/09:00pm 14.1 9.1 6.5 60 3.7 SSW 22 28 12 15 1019.3 1018.6 0.0
08/08:30pm 14.8 9.3 5.9 55 4.3 SSW 24 35 13 19 1019.0 1018.3 0.0
08/08:00pm 15.5 9.5 5.1 50 5.0 SSW 26 32 14 17 1018.8 1018.1 0.0
08/07:30pm 16.4 10.1 5.7 49 5.2 SSW 28 39 15 21 1018.3 1017.6 0.0
08/07:00pm 17.2 10.0 4.9 44 5.9 SW 32 41 17 22 1017.8 1017.1 0.0
08/06:30pm 18.5 11.0 3.6 37 7.0 SW 32 46 17 25 1017.0 1016.4 0.0
08/06:00pm 17.5 10.2 4.5 42 6.2 SW 32 43 17 23 1016.6 1016.0 0.0
08/05:30pm 18.8 11.2 5.6 42 6.5 SW 35 46 19 25 1016.4 1015.8 0.0
08/05:00pm 19.7 12.6 5.4 39 7.1 SW 32 46 17 25 1016.1 1015.5 0.0
08/04:30pm 18.3 11.2 5.5 43 6.3 SW 32 50 17 27 1016.1 1015.5 0.0
08/04:28pm 18.4 11.4 5.9 44 6.2 SW 32 50 17 27 1016.1 1015.5 0.0
08/04:00pm 19.0 11.1 4.4 38 7.0 SW 35 50 19 27 1016.0 1015.4 0.0
08/03:30pm 19.7 12.3 3.8 35 7.6 SW 32 44 17 24 1015.8 1015.2 0.0
08/03:00pm 19.2 11.0 2.6 33 7.7 SSW 35 50 19 27 1015.7 1015.1 0.0
08/02:30pm 19.3 11.8 3.5 35 7.5 SW 32 44 17 24 1015.8 1015.2 0.0
08/02:12pm 20.2 12.8 5.1 37 7.4 SW 33 52 18 28 1015.8 1015.2 0.0
08/02:00pm 19.8 12.3 3.5 34 7.8 SW 32 44 17 24 1015.8 1015.2 0.0
08/01:30pm 19.2 11.8 4.9 39 7.0 SW 33 46 18 25 1015.9 1015.3 0.0
08/01:00pm 19.9 11.2 4.0 35 7.7 SW 39 54 21 29 1015.9 1015.3 0.0
08/12:30pm 18.5 10.2 4.3 39 6.8 SW 37 48 20 26 1015.8 1015.2 0.0
08/12:00pm 19.0 11.2 4.7 39 6.9 SW 35 48 19 26 1015.5 1014.9 0.0
08/11:30am 19.3 12.2 5.4 40 6.8 SW 32 46 17 25 1015.2 1014.6 0.0
08/11:00am 17.5 10.6 6.4 48 5.5 SW 32 46 17 25 1015.0 1014.4 0.0
08/10:30am 17.1 9.9 6.0 48 5.5 SW 33 48 18 26 1014.7 1014.1 0.0
08/10:00am 17.5 11.2 7.5 52 5.1 SW 30 43 16 23 1014.3 1013.6 0.0
08/09:30am 16.9 9.9 7.0 52 5.0 SW 33 43 18 23 1013.9 1013.2 0.0
08/09:00am 17.1 10.0 6.6 50 5.2 SW 33 43 18 23 1013.7 1013.0 4.4
08/08:44am 16.1 8.7 4.8 47 5.4 SW 33 54 18 29 1013.4 1012.7 4.4
08/08:30am 16.1 9.1 6.0 51 4.9 SW 32 46 17 25 1013.3 1012.6 4.4
08/08:00am 15.1 9.1 6.9 58 4.0 SW 28 41 15 22 1012.9 1012.2 4.4
08/07:30am 14.6 9.9 7.9 64 3.4 SW 22 35 12 19 1012.6 1011.9 4.4
08/07:00am 14.2 10.2 8.2 67 3.0 SW 19 26 10 14 1012.3 1011.6 4.4
08/06:30am 13.5 9.5 8.1 70 2.7 SW 19 24 10 13 1011.8 1011.1 4.4
08/06:00am 13.7 9.6 7.9 68 2.9 WSW 19 30 10 16 1011.4 1010.7 4.4
08/05:30am 13.7 9.6 8.7 72 2.5 SW 20 26 11 14 1011.0 1010.3 4.4
08/05:00am 14.0 10.2 9.0 72 2.6 WSW 19 26 10 14 1010.6 1010.0 4.4
08/04:30am 13.1 10.0 9.0 76 2.1 WSW 15 20 8 11 1010.2 1009.6 4.4
08/04:00am 13.8 9.7 8.6 71 2.6 SW 20 28 11 15 1009.7 1009.1 4.4
08/03:30am 13.9 9.8 8.7 71 2.6 SW 20 26 11 14 1009.4 1008.8 4.4
08/03:00am 14.3 9.8 8.7 69 2.9 SW 22 39 12 21 1009.2 1008.6 4.4
08/02:30am 14.8 10.0 10.4 75 2.3 SW 26 39 14 21 1009.2 1008.6 4.4
08/02:00am 15.3 10.5 11.5 78 2.1 SW 28 39 15 21 1008.9 1008.2 4.4
08/01:35am 15.8 10.4 12.2 79 2.0 SW 32 52 17 28 1008.1 1007.4 4.4
08/01:30am 15.8 10.4 12.2 79 2.0 SW 32 48 17 26 1008.0 1007.3 4.4
08/01:00am 16.3 12.0 13.2 82 1.7 SW 28 43 15 23 1007.8 1007.1 4.4
08/12:30am 16.5 12.5 13.0 80 2.0 SW 26 35 14 19 1007.0 1006.3 4.4
08/12:12am 16.7 11.3 13.8 83 1.7 SW 35 54 19 29 1006.7 1006.0 4.4
08/12:00am 16.9 11.1 14.0 83 1.7 SW 37 54 20 29 1006.4 1005.7 4.4
 
Date/Time
CDT
Temp
°C
App
Temp
°C
Dew
Point
°C
Rel
Hum
%
Delta-T
°C
Wind Press
QNH
hPa
Press
MSL
hPa
Rain since
9am
mm
Dir  Spd
km/h
Gust
km/h
Spd
kts
Gust
kts
07/11:30pm 17.7 13.4 15.3 86 1.4 SW 32 46 17 25 1006.2 1005.5 4.4
07/11:00pm 18.9 15.2 16.0 83 1.7 SW 30 43 16 23 1005.5 1004.8 4.4
07/10:30pm 21.4 16.5 15.3 68 3.7 WSW 35 52 19 28 1006.2 1005.5 4.0
07/10:20pm 22.2 18.7 15.5 66 4.0 WSW 28 54 15 29 1005.4 1004.7 4.0
07/10:00pm 20.8 19.3 16.4 76 2.7 W 19 26 10 14 1004.7 1004.0 4.0
07/09:39pm 21.9 16.0 15.7 68 3.7 WSW 41 59 22 32 1004.9 1004.2 2.8
07/09:30pm 26.2 23.4 12.6 43 8.0 NW 19 52 10 28 1002.8 1002.1 1.6
07/09:00pm 29.4 27.5 9.0 28 11.4 N 9 11 5 6 1001.5 1000.8 1.2
07/08:30pm 30.9 28.9 8.6 25 12.5 W 9 11 5 6 1002.1 1001.4 1.2
07/08:00pm 32.1 29.3 8.4 23 13.3 W 13 19 7 10 1002.4 1001.7 1.2
07/07:30pm 33.0 29.2 9.1 23 13.7 WNW 19 24 10 13 1002.1 1001.4 1.2
07/07:00pm 33.8 30.7 11.6 26 13.2 NW 19 28 10 15 1002.2 1001.5 1.2
07/06:30pm 32.7 28.7 12.9 30 12.0 N 26 35 14 19 1002.5 1001.8 1.2
07/06:00pm 32.8 29.3 13.4 30 11.8 NW 24 41 13 22 1002.8 1002.1 1.2
07/05:30pm 33.0 29.4 13.1 30 12.1 NNW 24 37 13 20 1003.3 1002.6 1.2
07/05:00pm 34.0 30.9 14.5 31 12.1 N 24 35 13 19 1004.0 1003.4 1.2
07/04:30pm 33.5 30.2 14.0 30 12.0 NNW 24 32 13 17 1004.9 1004.2 1.2
07/04:00pm 32.7 28.8 14.3 32 11.3 N 28 41 15 22 1005.7 1005.0 1.2
07/03:30pm 32.5 28.8 15.1 35 10.8 N 28 37 15 20 1006.4 1005.7 1.2
07/03:00pm 32.1 29.0 15.6 37 10.3 NNW 26 37 14 20 1007.0 1006.3 1.2
07/02:30pm 30.8 28.6 16.0 40 9.3 N 22 35 12 19 1007.8 1007.1 1.2
07/02:00pm 31.0 29.0 17.3 43 8.8 N 24 35 13 19 1008.4 1007.7 1.2
07/01:30pm 26.9 23.7 18.2 59 5.6 NNE 32 41 17 22 1009.4 1008.8 1.2
07/01:00pm 28.3 26.1 15.9 47 7.7 NW 22 39 12 21 1009.6 1009.0 1.2
07/12:30pm 29.5 28.2 16.7 46 8.1 NW 19 28 10 15 1009.8 1009.2 1.2
07/12:00pm 28.4 28.9 19.3 57 5.9 NW 15 22 8 12 1010.6 1010.0 1.2
07/11:30am 25.7 26.6 18.4 64 4.7 NNW 11 15 6 8 1011.5 1010.8 1.2
07/11:00am 23.8 24.9 18.0 70 3.7 NW 9 13 5 7 1012.0 1011.3 1.2
07/10:30am 23.5 24.4 17.5 69 3.8 NW 9 13 5 7 1012.2 1011.5 1.0
07/10:00am 22.1 22.8 17.9 77 2.6 WNW 11 17 6 9 1012.5 1011.8 1.0
07/09:30am 19.3 19.8 16.5 84 1.7 NNE 9 13 5 7 1012.7 1012.0 1.0
07/09:00am 20.5 17.8 13.5 64 4.0 NW 20 32 11 17 1013.4 1012.7 0.2
07/08:30am 23.6 20.8 11.3 46 6.9 N 17 20 9 11 1012.6 1011.9 0.0
07/08:00am 20.5 19.0 8.5 46 6.3 NW 6 9 3 5 1012.7 1012.0 0.0
07/07:30am 19.7 17.6 8.4 48 5.9 ENE 9 11 5 6 1012.8 1012.1 0.0
07/07:00am 19.4 16.1 8.1 48 5.9 NE 15 19 8 10 1012.7 1012.0 0.0
07/06:30am 16.8 13.3 7.4 54 4.7 NE 15 17 8 9 1012.6 1011.9 0.0
07/06:00am 15.6 12.4 6.9 56 4.3 ENE 13 17 7 9 1012.6 1011.9 0.0
07/05:30am 15.9 12.0 7.1 56 4.4 ENE 17 20 9 11 1012.4 1011.7 0.0
07/05:00am 14.4 11.6 7.0 61 3.6 SE 11 13 6 7 1012.5 1011.8 0.0
07/04:30am 14.7 12.2 6.5 58 4.0 SSE 9 11 5 6 1012.4 1011.7 0.0
07/04:00am 16.1 12.2 7.1 55 4.5 ENE 17 20 9 11 1012.4 1011.7 0.0
07/03:30am 16.5 12.1 7.2 54 4.7 ENE 20 24 11 13 1012.5 1011.8 0.0
07/03:00am 17.0 13.2 7.4 53 4.9 ENE 17 20 9 11 1012.9 1012.2 0.0
07/02:30am 16.8 13.0 7.4 54 4.7 E 17 19 9 10 1013.3 1012.6 0.0
07/02:00am 16.4 13.3 7.3 55 4.6 ESE 13 15 7 8 1013.7 1013.0 0.0
07/01:30am 16.3 12.8 7.0 54 4.6 ESE 15 17 8 9 1014.4 1013.8 0.0
07/01:00am 15.9 12.9 6.1 52 4.8 SE 11 13 6 7 1014.8 1014.2 0.0
07/12:30am 16.2 12.8 5.8 50 5.1 SE 13 15 7 8 1015.4 1014.8 0.0
07/12:00am 16.5 12.6 5.5 48 5.3 SE 15 17 8 9 1015.7 1015.1 0.0
 
Date/Time
CDT
Temp
°C
App
Temp
°C
Dew
Point
°C
Rel
Hum
%
Delta-T
°C
Wind Press
QNH
hPa
Press
MSL
hPa
Rain since
9am
mm
Dir  Spd
km/h
Gust
km/h
Spd
kts
Gust
kts
06/11:30pm 17.2 13.7 5.5 46 5.7 SE 13 19 7 10 1015.8 1015.2 0.0
06/11:00pm 17.3 13.5 5.6 46 5.7 SSE 15 20 8 11 1016.1 1015.5 0.0
06/10:30pm 17.8 13.0 5.4 44 6.0 SSE 20 28 11 15 1016.3 1015.7 0.0
06/10:00pm 18.6 13.6 4.8 40 6.7 S 20 28 11 15 1016.2 1015.6 0.0
06/09:30pm 19.6 14.0 3.3 34 7.7 S 22 30 12 16 1016.1 1015.5 0.0
06/09:00pm 20.3 14.9 2.6 31 8.3 SSW 20 26 11 14 1015.9 1015.3 0.0
06/08:30pm 21.5 15.9 3.7 31 8.6 SSW 22 30 12 16 1015.5 1014.9 0.0
06/08:00pm 23.3 18.2 6.1 33 8.8 SSW 22 30 12 16 1015.0 1014.4 0.0
06/07:30pm 24.6 19.3 6.8 32 9.3 SSW 24 28 13 15 1014.7 1014.1 0.0
06/07:00pm 25.8 21.0 7.4 31 9.8 SSW 22 32 12 17 1014.4 1013.8 0.0
06/06:30pm 26.1 20.8 6.7 29 10.2 SSW 24 30 13 16 1014.1 1013.4 0.0
06/06:00pm 27.4 22.2 7.3 28 10.8 SSW 24 33 13 18 1014.1 1013.4 0.0
06/05:30pm 27.5 23.3 7.4 28 10.8 SSW 19 26 10 14 1014.1 1013.4 0.0
06/05:00pm 27.8 23.8 6.6 26 11.3 SSW 17 26 9 14 1014.2 1013.5 0.0
06/04:30pm 27.5 24.6 6.3 26 11.2 SSW 11 22 6 12 1014.2 1013.5 0.0
06/04:00pm 27.6 24.7 6.4 26 11.2 SW 11 22 6 12 1014.5 1013.9 0.0
06/03:30pm 27.6 24.4 6.9 27 11.0 SSW 13 28 7 15 1014.7 1014.1 0.0
06/03:00pm 26.9 24.1 6.9 28 10.6 WSW 11 20 6 11 1015.2 1014.6 0.0
06/02:30pm 26.5 23.7 7.0 29 10.4 SSW 11 20 6 11 1015.6 1015.0 0.0

Other Formats:

Comma delimited format used in spreadsheet applications
http://www.bom.gov.au/fwo/IDS60801/IDS60801.95662.axf

JavaScript Object Notation format (JSON) in row-major order
http://www.bom.gov.au/fwo/IDS60801/IDS60801.95662.json